Time,TemperatureF,DewpointF,PressureIn,WindDirection,WindDirectionDegrees,WindSpeedMPH,WindSpeedGustMPH,Humidity,HourlyPrecipIn,Conditions,Clouds,dailyrainin,SoftwareType,DateUTC
2013-01-11 00:01:00,48.2,43.6,29.71,North,0,0.0,0.0,84,0.00,RA,,0.00,WeatherDisplay:10.37,2013-01-11 06:01:00,
2013-01-11 00:06:00,48.2,43.6,29.71,North,0,0.0,0.0,84,0.00,RA,,0.00,WeatherDisplay:10.37,2013-01-11 06:06:00,
2013-01-11 00:11:00,48.2,43.6,29.71,North,0,0.0,0.0,84,0.00,CLR,,0.00,WeatherDisplay:10.37,2013-01-11 06:11:00,
2013-01-11 00:16:00,48.0,43.7,29.71,North,0,0.0,0.0,85,0.00,CLR,,0.00,WeatherDisplay:10.37,2013-01-11 06:16:00,
2013-01-11 00:21:00,47.8,43.2,29.71,North,0,0.0,0.0,84,0.00,CLR,,0.00,WeatherDisplay:10.37,2013-01-11 06:21:00,
2013-01-11 00:26:00,47.8,43.2,29.71,North,0,0.0,0.0,84,0.00,CLR,,0.00,WeatherDisplay:10.37,2013-01-11 06:26:00,
2013-01-11 00:31:00,47.8,43.5,29.70,North,0,0.0,0.0,85,0.00,CLR,,0.00,WeatherDisplay:10.37,2013-01-11 06:31:00,
2013-01-11 00:36:00,47.8,43.5,29.70,North,0,0.0,0.0,85,0.00,CLR,,0.00,WeatherDisplay:10.37,2013-01-11 06:36:00,
2013-01-11 00:41:00,47.8,43.5,29.69,North,0,0.0,0.0,85,0.00,CLR,,0.00,WeatherDisplay:10.37,2013-01-11 06:41:00,
2013-01-11 00:46:00,47.8,43.5,29.69,North,0,0.0,0.0,85,0.00,CLR,,0.00,WeatherDisplay:10.37,2013-01-11 06:46:00,
2013-01-11 00:51:00,47.8,43.5,29.69,North,0,0.0,0.0,85,0.00,CLR,,0.00,WeatherDisplay:10.37,2013-01-11 06:51:00,
2013-01-11 00:56:00,48.0,43.7,29.69,North,0,0.0,0.0,85,0.00,CLR,,0.00,WeatherDisplay:10.37,2013-01-11 06:56:00,
2013-01-11 01:01:00,48.2,43.9,29.69,North,0,0.0,0.0,85,0.00,CLR,,0.00,WeatherDisplay:10.37,2013-01-11 07:01:00,
2013-01-11 01:06:00,48.4,44.1,29.69,North,0,0.0,0.0,85,0.00,CLR,,0.00,WeatherDisplay:10.37,2013-01-11 07:06:00,
2013-01-11 01:11:00,48.6,44.3,29.69,North,0,0.0,0.0,85,0.00,CLR,,0.00,WeatherDisplay:10.37,2013-01-11 07:11:00,
2013-01-11 01:16:00,48.6,44.3,29.69,North,0,0.0,0.0,85,0.00,CLR,,0.00,WeatherDisplay:10.37,2013-01-11 07:16:00,
2013-01-11 01:21:00,48.6,44.3,29.69,North,0,0.0,0.0,85,0.00,CLR,,0.00,WeatherDisplay:10.37,2013-01-11 07:21:00,
2013-01-11 01:26:00,48.6,44.3,29.69,North,0,0.0,0.0,85,0.00,CLR,,0.00,WeatherDisplay:10.37,2013-01-11 07:26:00,
2013-01-11 01:31:00,48.6,44.3,29.69,North,0,0.0,0.0,85,0.00,CLR,,0.00,WeatherDisplay:10.37,2013-01-11 07:31:00,
2013-01-11 01:36:00,48.6,44.3,29.69,North,0,0.0,0.0,85,0.00,CLR,,0.00,WeatherDisplay:10.37,2013-01-11 07:36:00,
2013-01-11 01:41:00,48.6,44.3,29.69,North,0,0.0,0.0,85,0.00,CLR,,0.00,WeatherDisplay:10.37,2013-01-11 07:41:00,
2013-01-11 01:46:00,48.6,44.3,29.69,North,0,0.0,0.0,85,0.00,CLR,,0.00,WeatherDisplay:10.37,2013-01-11 07:46:00,
2013-01-11 01:51:00,48.6,44.3,29.69,North,0,0.0,0.0,85,0.00,CLR,,0.00,WeatherDisplay:10.37,2013-01-11 07:51:00,
2013-01-11 01:56:00,48.7,44.4,29.69,North,0,0.0,0.0,85,0.00,CLR,,0.00,WeatherDisplay:10.37,2013-01-11 07:56:00,
2013-01-11 02:01:00,48.7,44.4,29.69,North,0,0.0,0.0,85,0.00,CLR,,0.00,WeatherDisplay:10.37,2013-01-11 08:01:00,
2013-01-11 02:06:00,48.6,44.3,29.70,North,0,0.0,0.0,85,0.00,CLR,,0.00,WeatherDisplay:10.37,2013-01-11 08:06:00,
2013-01-11 02:11:00,48.6,44.3,29.70,North,0,0.0,0.0,85,0.00,CLR,,0.00,WeatherDisplay:10.37,2013-01-11 08:11:00,
2013-01-11 02:16:00,48.6,44.3,29.70,North,0,0.0,0.0,85,0.00,CLR,,0.00,WeatherDisplay:10.37,2013-01-11 08:16:00,
2013-01-11 02:21:00,48.6,44.3,29.69,North,0,0.0,0.0,85,0.00,CLR,,0.00,WeatherDisplay:10.37,2013-01-11 08:21:00,
2013-01-11 02:26:00,48.4,44.1,29.69,North,0,0.0,0.0,85,0.00,CLR,,0.00,WeatherDisplay:10.37,2013-01-11 08:26:00,
2013-01-11 02:31:00,48.2,43.9,29.70,North,0,0.0,0.0,85,0.00,CLR,,0.00,WeatherDisplay:10.37,2013-01-11 08:31:00,
2013-01-11 02:36:00,48.2,43.9,29.70,North,0,0.0,0.0,85,0.00,CLR,,0.00,WeatherDisplay:10.37,2013-01-11 08:36:00,
2013-01-11 02:41:00,48.2,43.9,29.70,North,0,0.0,0.0,85,0.00,CLR,,0.00,WeatherDisplay:10.37,2013-01-11 08:41:00,
2013-01-11 02:46:00,48.2,43.9,29.70,North,0,0.0,0.0,85,0.00,CLR,,0.00,WeatherDisplay:10.37,2013-01-11 08:46:00,
2013-01-11 02:51:00,48.2,43.9,29.70,North,0,0.0,0.0,85,0.00,CLR,,0.00,WeatherDisplay:10.37,2013-01-11 08:51:00,
2013-01-11 02:56:00,48.2,43.9,29.70,North,0,0.0,0.0,85,0.00,CLR,,0.00,WeatherDisplay:10.37,2013-01-11 08:56:00,
2013-01-11 03:01:00,48.2,43.9,29.70,North,0,0.0,0.0,85,0.00,CLR,,0.00,WeatherDisplay:10.37,2013-01-11 09:01:00,
2013-01-11 03:06:00,48.2,43.9,29.69,North,0,0.0,0.0,85,0.00,CLR,,0.00,WeatherDisplay:10.37,2013-01-11 09:06:00,
2013-01-11 03:11:00,48.2,43.9,29.69,North,0,0.0,0.0,85,0.00,CLR,,0.00,WeatherDisplay:10.37,2013-01-11 09:11:00,
2013-01-11 03:16:00,48.4,44.1,29.69,North,0,0.0,0.0,85,0.00,CLR,,0.00,WeatherDisplay:10.37,2013-01-11 09:16:00,
2013-01-11 03:21:00,48.6,44.3,29.69,North,0,0.0,0.0,85,0.00,CLR,,0.00,WeatherDisplay:10.37,2013-01-11 09:21:00,
2013-01-11 03:26:00,48.6,44.3,29.69,North,0,0.0,0.0,85,0.00,CLR,,0.00,WeatherDisplay:10.37,2013-01-11 09:26:00,
2013-01-11 03:31:00,48.6,44.3,29.68,North,0,0.0,0.0,85,0.00,CLR,,0.00,WeatherDisplay:10.37,2013-01-11 09:31:00,
2013-01-11 03:36:00,48.6,44.3,29.68,North,0,0.0,0.0,85,0.00,CLR,,0.00,WeatherDisplay:10.37,2013-01-11 09:36:00,
2013-01-11 03:41:00,48.6,44.3,29.68,North,0,0.0,0.0,85,0.00,CLR,,0.00,WeatherDisplay:10.37,2013-01-11 09:41:00,
2013-01-11 03:46:00,48.6,44.3,29.67,North,0,0.0,0.0,85,0.00,CLR,,0.00,WeatherDisplay:10.37,2013-01-11 09:46:00,
2013-01-11 03:51:00,48.7,44.4,29.67,North,0,0.0,0.0,85,0.00,CLR,,0.00,WeatherDisplay:10.37,2013-01-11 09:51:00,
2013-01-11 03:56:00,48.7,44.4,29.66,North,0,0.0,0.0,85,0.00,CLR,,0.00,WeatherDisplay:10.37,2013-01-11 09:56:00,
2013-01-11 04:01:00,48.7,44.4,29.66,North,0,0.0,0.0,85,0.00,CLR,,0.00,WeatherDisplay:10.37,2013-01-11 10:01:00,
2013-01-11 04:06:00,48.7,44.4,29.66,North,0,0.0,0.0,85,0.00,CLR,,0.00,WeatherDisplay:10.37,2013-01-11 10:06:00,
2013-01-11 04:11:00,48.7,44.4,29.65,North,0,0.0,0.0,85,0.00,CLR,,0.00,WeatherDisplay:10.37,2013-01-11 10:11:00,
2013-01-11 04:17:00,48.6,44.3,29.65,North,0,0.0,0.0,85,0.00,CLR,,0.00,WeatherDisplay:10.37,2013-01-11 10:17:00,
2013-01-11 04:22:00,48.6,44.3,29.65,North,0,0.0,0.0,85,0.00,CLR,,0.00,WeatherDisplay:10.37,2013-01-11 10:22:00,
2013-01-11 04:27:00,48.6,44.3,29.64,North,0,0.0,0.0,85,0.00,CLR,,0.00,WeatherDisplay:10.37,2013-01-11 10:27:00,
2013-01-11 04:32:00,48.6,44.3,29.64,North,0,0.0,0.0,85,0.00,CLR,,0.00,WeatherDisplay:10.37,2013-01-11 10:32:00,
2013-01-11 04:37:00,48.4,44.1,29.64,North,0,0.0,0.0,85,0.00,CLR,,0.00,WeatherDisplay:10.37,2013-01-11 10:37:00,
2013-01-11 04:42:00,48.4,44.1,29.64,North,0,0.0,0.0,85,0.00,CLR,,0.00,WeatherDisplay:10.37,2013-01-11 10:42:00,
2013-01-11 04:47:00,48.4,44.1,29.64,North,0,0.0,0.0,85,0.00,CLR,,0.00,WeatherDisplay:10.37,2013-01-11 10:47:00,
2013-01-11 04:52:00,48.4,44.1,29.64,North,0,0.0,0.0,85,0.00,CLR,,0.00,WeatherDisplay:10.37,2013-01-11 10:52:00,
2013-01-11 04:57:00,48.4,44.1,29.64,North,0,0.0,0.0,85,0.00,CLR,,0.00,WeatherDisplay:10.37,2013-01-11 10:57:00,
2013-01-11 05:02:00,48.2,43.9,29.65,North,0,0.0,0.0,85,0.00,CLR,,0.00,WeatherDisplay:10.37,2013-01-11 11:02:00,
2013-01-11 05:07:00,48.2,43.9,29.65,North,0,0.0,0.0,85,0.00,CLR,,0.00,WeatherDisplay:10.37,2013-01-11 11:07:00,
2013-01-11 05:12:00,48.2,43.9,29.65,North,0,0.0,0.0,85,0.00,CLR,,0.00,WeatherDisplay:10.37,2013-01-11 11:12:00,
2013-01-11 05:17:00,48.2,43.9,29.65,North,0,0.0,0.0,85,0.00,CLR,,0.00,WeatherDisplay:10.37,2013-01-11 11:17:00,
2013-01-11 05:22:00,48.2,43.9,29.65,North,0,0.0,0.0,85,0.00,CLR,,0.00,WeatherDisplay:10.37,2013-01-11 11:22:00,
2013-01-11 05:27:00,48.2,43.9,29.65,North,0,0.0,0.0,85,0.00,CLR,,0.00,WeatherDisplay:10.37,2013-01-11 11:27:00,
2013-01-11 05:32:00,48.2,43.9,29.65,North,0,0.0,0.0,85,0.00,CLR,,0.00,WeatherDisplay:10.37,2013-01-11 11:32:00,
2013-01-11 05:37:00,48.2,43.9,29.65,North,0,0.0,0.0,85,0.00,CLR,,0.00,WeatherDisplay:10.37,2013-01-11 11:37:00,
2013-01-11 05:42:00,48.2,43.9,29.65,North,0,0.0,0.0,85,0.00,CLR,,0.00,WeatherDisplay:10.37,2013-01-11 11:42:00,
2013-01-11 05:47:00,48.2,43.9,29.65,North,0,0.0,0.0,85,0.00,CLR,,0.00,WeatherDisplay:10.37,2013-01-11 11:47:00,
2013-01-11 05:52:00,48.2,43.9,29.65,North,0,0.0,0.0,85,0.00,CLR,,0.00,WeatherDisplay:10.37,2013-01-11 11:52:00,
2013-01-11 05:57:00,48.4,44.1,29.65,North,0,0.0,0.0,85,0.00,CLR,,0.00,WeatherDisplay:10.37,2013-01-11 11:57:00,
2013-01-11 06:02:00,48.4,44.1,29.65,North,0,0.0,0.0,85,0.00,CLR,,0.00,WeatherDisplay:10.37,2013-01-11 12:02:00,
2013-01-11 06:07:00,48.4,44.1,29.65,North,0,0.0,0.0,85,0.00,CLR,,0.00,WeatherDisplay:10.37,2013-01-11 12:07:00,
2013-01-11 06:12:00,48.4,44.1,29.65,North,0,0.0,0.0,85,0.00,CLR,,0.00,WeatherDisplay:10.37,2013-01-11 12:12:00,
2013-01-11 06:17:00,48.2,43.9,29.65,North,0,0.0,0.0,85,0.00,CLR,,0.00,WeatherDisplay:10.37,2013-01-11 12:17:00,
2013-01-11 06:22:00,48.2,43.9,29.65,North,0,0.0,0.0,85,0.00,CLR,,0.00,WeatherDisplay:10.37,2013-01-11 12:22:00,
2013-01-11 06:27:00,48.2,43.9,29.65,North,0,0.0,0.0,85,0.00,CLR,,0.00,WeatherDisplay:10.37,2013-01-11 12:27:00,
2013-01-11 06:32:00,48.2,43.9,29.65,North,0,0.0,0.0,85,0.00,CLR,,0.00,WeatherDisplay:10.37,2013-01-11 12:32:00,
2013-01-11 06:37:00,48.2,43.9,29.65,North,0,0.0,0.0,85,0.00,CLR,,0.00,WeatherDisplay:10.37,2013-01-11 12:37:00,
2013-01-11 06:42:00,48.2,43.9,29.65,North,0,0.0,0.0,85,0.00,CLR,,0.00,WeatherDisplay:10.37,2013-01-11 12:42:00,
2013-01-11 06:47:00,48.2,43.9,29.65,North,0,0.0,0.0,85,0.00,CLR,,0.00,WeatherDisplay:10.37,2013-01-11 12:47:00,
2013-01-11 06:52:00,48.2,43.9,29.66,North,0,0.0,0.0,85,0.00,CLR,,0.00,WeatherDisplay:10.37,2013-01-11 12:52:00,
2013-01-11 06:57:00,48.4,44.1,29.66,North,0,0.0,0.0,85,0.00,CLR,,0.00,WeatherDisplay:10.37,2013-01-11 12:57:00,
2013-01-11 07:02:00,48.2,43.9,29.66,North,0,0.0,0.0,85,0.00,CLR,,0.00,WeatherDisplay:10.37,2013-01-11 13:02:00,
2013-01-11 07:07:00,48.2,43.9,29.66,North,0,0.0,0.0,85,0.00,CLR,,0.00,WeatherDisplay:10.37,2013-01-11 13:07:00,
2013-01-11 07:12:00,48.4,44.1,29.66,North,0,0.0,0.0,85,0.00,CLR,,0.00,WeatherDisplay:10.37,2013-01-11 13:12:00,
2013-01-11 07:17:00,48.4,44.1,29.66,North,0,0.0,0.0,85,0.00,CLR,,0.00,WeatherDisplay:10.37,2013-01-11 13:17:00,
2013-01-11 07:22:00,48.4,44.1,29.66,North,0,0.0,0.0,85,0.00,CLR,,0.00,WeatherDisplay:10.37,2013-01-11 13:22:00,
2013-01-11 07:27:00,48.4,44.1,29.66,North,0,0.0,0.0,85,0.00,CLR,,0.00,WeatherDisplay:10.37,2013-01-11 13:27:00,
2013-01-11 07:32:00,48.2,43.9,29.67,North,0,0.0,0.0,85,0.00,CLR,,0.00,WeatherDisplay:10.37,2013-01-11 13:32:00,
2013-01-11 07:37:00,48.2,43.9,29.67,North,0,0.0,0.0,85,0.00,CLR,,0.00,WeatherDisplay:10.37,2013-01-11 13:37:00,
2013-01-11 07:42:00,48.2,43.9,29.66,North,0,0.0,0.0,85,0.00,CLR,,0.00,WeatherDisplay:10.37,2013-01-11 13:42:00,
2013-01-11 07:47:00,48.4,44.4,29.66,North,0,0.0,0.0,86,0.00,CLR,,0.00,WeatherDisplay:10.37,2013-01-11 13:47:00,
2013-01-11 07:52:00,48.2,44.2,29.66,North,0,0.0,0.0,86,0.00,CLR,,0.00,WeatherDisplay:10.37,2013-01-11 13:52:00,
2013-01-11 07:57:00,48.4,44.4,29.66,North,0,0.0,0.0,86,0.00,CLR,,0.00,WeatherDisplay:10.37,2013-01-11 13:57:00,
2013-01-11 08:02:00,48.6,44.9,29.66,North,0,0.0,0.0,87,0.00,CLR,,0.00,WeatherDisplay:10.37,2013-01-11 14:02:00,
2013-01-11 08:07:00,48.6,44.9,29.66,North,0,0.0,0.0,87,0.00,CLR,,0.00,WeatherDisplay:10.37,2013-01-11 14:07:00,
2013-01-11 08:12:00,48.7,45.0,29.66,North,0,0.0,0.0,87,0.00,CLR,,0.00,WeatherDisplay:10.37,2013-01-11 14:12:00,
2013-01-11 08:17:00,48.9,45.2,29.66,North,0,0.0,0.0,87,0.00,CLR,,0.00,WeatherDisplay:10.37,2013-01-11 14:17:00,
2013-01-11 08:22:00,49.1,45.4,29.66,North,0,0.0,0.0,87,0.00,CLR,,0.00,WeatherDisplay:10.37,2013-01-11 14:22:00,
2013-01-11 08:27:00,49.1,45.1,29.66,North,0,0.0,0.0,86,0.00,CLR,,0.00,WeatherDisplay:10.37,2013-01-11 14:27:00,
2013-01-11 08:32:00,49.1,45.1,29.67,North,0,0.0,0.0,86,0.00,CLR,,0.00,WeatherDisplay:10.37,2013-01-11 14:32:00,
2013-01-11 08:37:00,49.3,45.3,29.67,North,0,0.0,0.0,86,0.00,CLR,,0.00,WeatherDisplay:10.37,2013-01-11 14:37:00,
2013-01-11 08:42:00,49.3,45.6,29.67,North,0,0.0,0.0,87,0.00,CLR,,0.00,WeatherDisplay:10.37,2013-01-11 14:42:00,
2013-01-11 08:47:00,49.5,45.8,29.66,North,0,0.0,0.0,87,0.00,CLR,,0.00,WeatherDisplay:10.37,2013-01-11 14:47:00,
2013-01-11 08:52:00,49.8,46.1,29.67,North,0,0.0,0.0,87,0.00,CLR,,0.00,WeatherDisplay:10.37,2013-01-11 14:52:00,
2013-01-11 08:57:00,50.0,46.3,29.67,North,0,0.0,0.0,87,0.00,CLR,,0.00,WeatherDisplay:10.37,2013-01-11 14:57:00,
2013-01-11 09:02:00,50.4,46.3,29.67,North,0,0.0,0.0,86,0.00,CLR,,0.00,WeatherDisplay:10.37,2013-01-11 15:02:00,
2013-01-11 09:07:00,50.4,46.3,29.67,North,0,0.0,0.0,86,0.00,CLR,,0.00,WeatherDisplay:10.37,2013-01-11 15:07:00,
2013-01-11 09:12:00,50.7,46.7,29.67,North,0,0.0,0.0,86,0.00,CLR,,0.00,WeatherDisplay:10.37,2013-01-11 15:12:00,
2013-01-11 09:17:00,50.7,47.0,29.68,North,0,0.0,0.0,87,0.00,CLR,,0.00,WeatherDisplay:10.37,2013-01-11 15:17:00,
2013-01-11 09:22:00,51.1,47.3,29.67,North,0,0.0,0.0,87,0.00,CLR,,0.00,WeatherDisplay:10.37,2013-01-11 15:22:00,
2013-01-11 09:27:00,51.1,47.3,29.67,North,0,0.0,0.0,87,0.00,CLR,,0.00,WeatherDisplay:10.37,2013-01-11 15:27:00,
2013-01-11 09:32:00,51.4,47.7,29.67,North,0,0.0,0.0,87,0.00,CLR,,0.00,WeatherDisplay:10.37,2013-01-11 15:32:00,
2013-01-11 09:37:00,51.8,48.1,29.68,North,0,0.0,0.0,87,0.00,CLR,,0.00,WeatherDisplay:10.37,2013-01-11 15:37:00,
2013-01-11 09:42:00,52.2,48.1,29.68,North,0,0.0,0.0,86,0.00,CLR,,0.00,WeatherDisplay:10.37,2013-01-11 15:42:00,
2013-01-11 09:47:00,52.2,48.1,29.68,North,0,0.0,0.0,86,0.00,CLR,,0.00,WeatherDisplay:10.37,2013-01-11 15:47:00,
2013-01-11 09:53:00,52.5,48.5,29.67,North,0,0.0,0.0,86,0.00,CLR,,0.00,WeatherDisplay:10.37,2013-01-11 15:53:00,
2013-01-11 09:58:00,52.7,48.6,29.67,North,0,0.0,0.0,86,0.00,CLR,,0.00,WeatherDisplay:10.37,2013-01-11 15:58:00,
2013-01-11 10:03:00,53.1,49.3,29.67,North,0,0.0,0.0,87,0.00,CLR,,0.00,WeatherDisplay:10.37,2013-01-11 16:03:00,
2013-01-11 10:08:00,53.4,49.3,29.66,North,0,0.0,0.0,86,0.00,CLR,,0.00,WeatherDisplay:10.37,2013-01-11 16:08:00,
2013-01-11 19:18:00,53.8,49.7,29.66,North,0,0.0,0.0,86,0.00,CLR,,0.00,WeatherDisplay:10.37,2013-01-12 01:18:00,
2013-01-11 19:23:00,53.8,49.7,29.66,North,0,0.0,0.0,86,0.00,CLR,,0.00,WeatherDisplay:10.37,2013-01-12 01:23:00,
2013-01-11 19:29:00,53.8,49.7,29.66,North,0,0.0,0.0,86,0.00,CLR,,0.00,WeatherDisplay:10.37,2013-01-12 01:29:00,
2013-01-11 19:34:00,53.8,49.7,29.66,North,0,0.0,0.0,86,0.00,CLR,,0.00,WeatherDisplay:10.37,2013-01-12 01:34:00,
2013-01-11 19:39:00,53.8,49.7,29.66,North,0,0.0,0.0,86,0.00,CLR,,0.00,WeatherDisplay:10.37,2013-01-12 01:39:00,
2013-01-11 19:44:00,53.8,49.7,29.66,North,0,0.0,0.0,86,0.00,CLR,,0.00,WeatherDisplay:10.37,2013-01-12 01:44:00,
2013-01-11 19:49:00,53.8,49.7,29.66,North,0,0.0,0.0,86,0.00,CLR,,0.00,WeatherDisplay:10.37,2013-01-12 01:49:00,
2013-01-11 19:54:00,53.8,49.7,29.66,North,0,0.0,0.0,86,0.00,CLR,,0.00,WeatherDisplay:10.37,2013-01-12 01:54:00,
2013-01-11 19:59:00,53.8,49.7,29.66,North,0,0.0,0.0,86,0.00,CLR,,0.00,WeatherDisplay:10.37,2013-01-12 01:59:00,
2013-01-11 20:04:00,64.6,56.8,29.56,North,0,0.0,0.0,76,0.00,OVC,,0.00,WeatherDisplay:10.37,2013-01-12 02:04:00,
2013-01-11 20:09:00,64.8,57.4,29.56,North,0,0.0,0.0,77,0.00,OVC,,0.00,WeatherDisplay:10.37,2013-01-12 02:09:00,
2013-01-11 20:14:00,64.8,57.4,29.56,North,0,0.0,0.0,77,0.00,OVC,,0.00,WeatherDisplay:10.37,2013-01-12 02:14:00,
2013-01-11 20:19:00,64.8,57.4,29.56,North,0,0.0,0.0,77,0.00,OVC,,0.00,WeatherDisplay:10.37,2013-01-12 02:19:00,
2013-01-11 20:24:00,64.8,57.4,29.56,North,0,0.0,0.0,77,0.00,OVC,,0.00,WeatherDisplay:10.37,2013-01-12 02:24:00,
2013-01-11 20:29:00,64.6,57.6,29.56,North,0,0.0,0.0,78,0.00,OVC,,0.00,WeatherDisplay:10.37,2013-01-12 02:29:00,
2013-01-11 20:34:00,64.6,57.6,29.56,North,0,0.0,0.0,78,0.00,OVC,,0.00,WeatherDisplay:10.37,2013-01-12 02:34:00,
2013-01-11 20:39:00,64.6,58.3,29.56,North,0,0.0,0.0,80,0.00,OVC,,0.00,WeatherDisplay:10.37,2013-01-12 02:39:00,
2013-01-11 20:44:00,64.6,57.9,29.56,North,0,0.0,0.0,79,0.00,OVC,,0.00,WeatherDisplay:10.37,2013-01-12 02:44:00,
2013-01-11 20:49:00,64.4,58.1,29.56,North,0,0.0,0.0,80,0.00,OVC,,0.00,WeatherDisplay:10.37,2013-01-12 02:49:00,
2013-01-11 20:54:00,64.4,58.1,29.57,North,0,0.0,0.0,80,0.00,OVC,,0.00,WeatherDisplay:10.37,2013-01-12 02:54:00,
2013-01-11 20:59:00,64.4,58.4,29.56,North,0,0.0,0.0,81,0.00,OVC,,0.00,WeatherDisplay:10.37,2013-01-12 02:59:00,
2013-01-11 21:04:00,64.4,58.1,29.57,North,0,0.0,0.0,80,0.00,SCT,,0.00,WeatherDisplay:10.37,2013-01-12 03:04:00,
2013-01-11 21:09:00,64.4,58.4,29.57,North,0,0.0,0.0,81,0.00,SCT,,0.00,WeatherDisplay:10.37,2013-01-12 03:09:00,
2013-01-11 21:14:00,64.2,58.6,29.57,North,0,0.0,0.0,82,0.00,SCT,,0.00,WeatherDisplay:10.37,2013-01-12 03:14:00,
2013-01-11 21:19:00,64.2,58.6,29.57,North,0,0.0,0.0,82,0.00,SCT,,0.00,WeatherDisplay:10.37,2013-01-12 03:19:00,
2013-01-11 21:24:00,64.2,58.6,29.57,North,0,0.0,0.0,82,0.00,SCT,,0.00,WeatherDisplay:10.37,2013-01-12 03:24:00,
2013-01-11 21:30:00,64.2,58.9,29.57,North,0,0.0,0.0,83,0.00,SCT,,0.00,WeatherDisplay:10.37,2013-01-12 03:30:00,
2013-01-11 21:35:00,64.4,59.1,29.57,North,0,0.0,0.0,83,0.00,SCT,,0.00,WeatherDisplay:10.37,2013-01-12 03:35:00,
2013-01-11 21:40:00,64.4,59.5,29.57,North,0,0.0,0.0,84,0.00,SCT,,0.00,WeatherDisplay:10.37,2013-01-12 03:40:00,
2013-01-11 21:45:00,64.4,59.5,29.57,North,0,0.0,0.0,84,0.00,SCT,,0.00,WeatherDisplay:10.37,2013-01-12 03:45:00,
2013-01-11 21:50:00,64.4,59.5,29.58,North,0,0.0,0.0,84,0.00,SCT,,0.00,WeatherDisplay:10.37,2013-01-12 03:50:00,
2013-01-11 21:55:00,64.4,59.5,29.58,North,0,0.0,0.0,84,0.00,SCT,,0.00,WeatherDisplay:10.37,2013-01-12 03:55:00,
2013-01-11 22:00:00,64.6,59.6,29.58,North,0,0.0,0.0,84,0.00,SCT,,0.00,WeatherDisplay:10.37,2013-01-12 04:00:00,
2013-01-11 22:05:00,64.6,60.0,29.58,North,0,0.0,0.0,85,0.00,SCT,,0.00,WeatherDisplay:10.37,2013-01-12 04:05:00,
2013-01-11 22:10:00,64.6,60.0,29.58,North,0,0.0,0.0,85,0.00,SCT,,0.00,WeatherDisplay:10.37,2013-01-12 04:10:00,
2013-01-11 22:15:00,64.8,60.1,29.58,North,0,0.0,0.0,85,0.00,SCT,,0.00,WeatherDisplay:10.37,2013-01-12 04:15:00,
2013-01-11 22:20:00,64.8,60.1,29.58,North,0,0.0,0.0,85,0.00,SCT,,0.00,WeatherDisplay:10.37,2013-01-12 04:20:00,
2013-01-11 22:25:00,64.8,60.1,29.58,North,0,0.0,0.0,85,0.00,SCT,,0.00,WeatherDisplay:10.37,2013-01-12 04:25:00,
2013-01-11 22:30:00,64.9,60.3,29.58,North,0,0.0,0.0,85,0.00,SCT,,0.00,WeatherDisplay:10.37,2013-01-12 04:30:00,
2013-01-11 22:35:00,64.9,60.3,29.57,North,0,0.0,0.0,85,0.00,SCT,,0.00,WeatherDisplay:10.37,2013-01-12 04:35:00,
2013-01-11 22:40:00,64.9,60.3,29.58,North,0,0.0,0.0,85,0.00,SCT,,0.00,WeatherDisplay:10.37,2013-01-12 04:40:00,
2013-01-11 22:45:00,65.1,60.5,29.58,North,0,0.0,0.0,85,0.00,SCT,,0.00,WeatherDisplay:10.37,2013-01-12 04:45:00,
2013-01-11 22:51:00,64.9,60.6,29.58,North,0,0.0,0.0,86,0.00,SCT,,0.00,WeatherDisplay:10.37,2013-01-12 04:51:00,
2013-01-11 22:56:00,64.9,60.6,29.58,North,0,0.0,0.0,86,0.00,SCT,,0.00,WeatherDisplay:10.37,2013-01-12 04:56:00,
2013-01-11 23:00:00,64.8,60.5,29.58,North,0,0.0,0.0,86,0.00,SCT,,0.00,WeatherDisplay:10.37,2013-01-12 05:00:00,
2013-01-11 23:01:00,64.8,60.5,29.58,North,0,0.0,0.0,86,0.00,SCT,,0.00,WeatherDisplay:10.37,2013-01-12 05:01:00,
2013-01-11 23:02:00,64.8,60.1,29.58,North,0,0.0,0.0,85,0.00,OVC,,0.00,WeatherDisplay:10.37,2013-01-12 05:02:00,
2013-01-11 23:05:00,64.6,60.0,29.58,North,0,0.0,0.0,85,0.00,OVC,,0.00,WeatherDisplay:10.37,2013-01-12 05:05:00,
2013-01-11 23:10:00,64.6,60.0,29.58,North,0,0.0,0.0,85,0.00,OVC,,0.00,WeatherDisplay:10.37,2013-01-12 05:10:00,
2013-01-11 23:15:00,64.4,59.8,29.58,North,0,0.0,0.0,85,0.00,OVC,,0.00,WeatherDisplay:10.37,2013-01-12 05:15:00,
2013-01-11 23:20:00,64.4,59.8,29.58,North,0,0.0,0.0,85,0.00,OVC,,0.00,WeatherDisplay:10.37,2013-01-12 05:20:00,
2013-01-11 23:25:00,64.2,59.6,29.58,North,0,0.0,0.0,85,0.00,OVC,,0.00,WeatherDisplay:10.37,2013-01-12 05:25:00,
2013-01-11 23:30:00,64.2,59.6,29.58,North,0,0.0,0.0,85,0.00,OVC,,0.00,WeatherDisplay:10.37,2013-01-12 05:30:00,
2013-01-11 23:35:00,64.0,59.1,29.58,North,0,0.0,0.0,84,0.00,OVC,,0.00,WeatherDisplay:10.37,2013-01-12 05:35:00,
2013-01-11 23:40:00,63.9,58.9,29.58,North,0,0.0,0.0,84,0.00,OVC,,0.00,WeatherDisplay:10.37,2013-01-12 05:40:00,
2013-01-11 23:45:00,63.9,58.9,29.59,North,0,0.0,0.0,84,0.00,OVC,,0.00,WeatherDisplay:10.37,2013-01-12 05:45:00,
2013-01-11 23:50:00,63.7,58.8,29.59,North,0,0.0,0.0,84,0.00,OVC,,0.00,WeatherDisplay:10.37,2013-01-12 05:50:00,
2013-01-11 23:55:00,63.7,58.8,29.59,North,0,0.0,0.0,84,0.00,OVC,,0.00,WeatherDisplay:10.37,2013-01-12 05:55:00,